Time;durP1;ratioP1;P1;durP2;ratioP2;P2;SDS_P1;SDS_P2;PMS_P1;PMS_P2;Temp;Humidity;BMP_temperature;BMP_pressure;BME280_temperature;BME280_humidity;BME280_pressure;Samples;Min_cycle;Max_cycle;Signal;HPM_P1;HPM_P2
2022/07/24 00:01:12;;;;;;;5.55;5.05;;;;;;;;;;5045050;28;20444;-82
2022/07/24 00:03:39;;;;;;;5.90;5.40;;;;;;;;;;5045840;28;20926;-82
2022/07/24 00:06:06;;;;;;;6.88;5.03;;;;;;;;;;5048032;28;20460;-82
2022/07/24 00:08:32;;;;;;;5.70;5.10;;;;;;;;;;5045003;28;20438;-84
2022/07/24 00:10:59;;;;;;;4.90;4.50;;;;;;;;;;5047148;28;20436;-82
2022/07/24 00:13:25;;;;;;;6.03;5.43;;;;;;;;;;5046258;28;20421;-82
2022/07/24 00:15:51;;;;;;;5.15;4.65;;;;;;;;;;5046927;28;20807;-81
2022/07/24 00:18:18;;;;;;;6.55;5.05;;;;;;;;;;5046213;28;20425;-82
2022/07/24 00:20:46;;;;;;;5.13;4.72;;;;;;;;;;5030225;28;20421;-82
2022/07/24 00:23:13;;;;;;;4.90;4.40;;;;;;;;;;5046661;28;20436;-82
2022/07/24 00:25:39;;;;;;;4.50;4.07;;;;;;;;;;5046059;28;20425;-83
2022/07/24 00:28:05;;;;;;;4.90;4.50;;;;;;;;;;5023500;28;20433;-82
2022/07/24 00:30:32;;;;;;;4.90;4.50;;;;;;;;;;5045666;28;20439;-82
2022/07/24 00:32:58;;;;;;;5.50;5.00;;;;;;;;;;5044726;28;20429;-82
2022/07/24 00:35:25;;;;;;;5.43;4.90;;;;;;;;;;5047517;28;20433;-82
2022/07/24 00:37:53;;;;;;;9.43;5.20;;;;;;;;;;5046748;28;20420;-82
2022/07/24 00:40:19;;;;;;;4.88;4.38;;;;;;;;;;5045133;28;20948;-82
2022/07/24 00:42:46;;;;;;;5.22;4.72;;;;;;;;;;5046677;28;20429;-82
2022/07/24 00:45:12;;;;;;;5.28;4.78;;;;;;;;;;5045349;28;20425;-82
2022/07/24 00:47:38;;;;;;;4.93;4.50;;;;;;;;;;5045608;28;20425;-81
2022/07/24 00:50:06;;;;;;;5.00;4.50;;;;;;;;;;5047356;28;20918;-83
2022/07/24 00:52:32;;;;;;;4.43;4.13;;;;;;;;;;5045666;28;20510;-82
2022/07/24 00:55:00;;;;;;;4.72;4.03;;;;;;;;;;5051265;28;20436;-82
2022/07/24 00:57:26;;;;;;;4.80;4.40;;;;;;;;;;5046688;28;20428;-81
2022/07/24 00:59:53;;;;;;;5.72;4.35;;;;;;;;;;5029463;28;20772;-82
2022/07/24 01:02:19;;;;;;;4.95;4.20;;;;;;;;;;5048683;28;20418;-82
2022/07/24 01:04:45;;;;;;;4.20;3.75;;;;;;;;;;5033651;28;20433;-82
2022/07/24 01:07:12;;;;;;;5.10;4.60;;;;;;;;;;5048197;28;20455;-82
2022/07/24 01:09:38;;;;;;;6.20;4.70;;;;;;;;;;5050829;28;20429;-84
2022/07/24 01:12:07;;;;;;;4.93;4.40;;;;;;;;;;5050448;28;20443;-83
2022/07/24 01:14:33;;;;;;;5.70;4.43;;;;;;;;;;5050353;28;20439;-83
2022/07/24 01:17:00;;;;;;;5.00;4.50;;;;;;;;;;5049933;28;20433;-82
2022/07/24 01:19:26;;;;;;;7.53;5.15;;;;;;;;;;5049916;28;20460;-82
2022/07/24 01:21:54;;;;;;;4.53;4.13;;;;;;;;;;5048755;28;20425;-82
2022/07/24 01:24:21;;;;;;;6.05;4.65;;;;;;;;;;5052170;28;20431;-83
2022/07/24 01:26:48;;;;;;;7.13;4.70;;;;;;;;;;5049119;28;20433;-82
2022/07/24 01:29:15;;;;;;;5.20;4.70;;;;;;;;;;5047186;28;20431;-82
2022/07/24 01:31:42;;;;;;;5.00;4.50;;;;;;;;;;5047394;28;20433;-81
2022/07/24 01:34:09;;;;;;;5.10;4.60;;;;;;;;;;5031850;28;20953;-82
2022/07/24 01:36:36;;;;;;;4.90;4.50;;;;;;;;;;5049314;28;20456;-81
2022/07/24 01:39:04;;;;;;;6.93;5.30;;;;;;;;;;5045800;28;20425;-84
2022/07/24 01:41:30;;;;;;;5.28;4.60;;;;;;;;;;5049794;28;20457;-83
2022/07/24 01:43:57;;;;;;;4.90;4.40;;;;;;;;;;5031089;28;20456;-83
2022/07/24 01:46:23;;;;;;;6.28;4.55;;;;;;;;;;5049896;28;20439;-83
2022/07/24 01:48:50;;;;;;;4.95;4.50;;;;;;;;;;5046687;28;20433;-83
2022/07/24 01:51:16;;;;;;;5.95;4.40;;;;;;;;;;5029389;28;20432;-83
2022/07/24 01:53:42;;;;;;;5.93;5.00;;;;;;;;;;5045492;28;20433;-84
2022/07/24 01:56:10;;;;;;;4.60;4.20;;;;;;;;;;5041117;28;20429;-84
2022/07/24 01:58:39;;;;;;;7.32;5.40;;;;;;;;;;5027673;28;20918;-83
2022/07/24 02:01:05;;;;;;;5.85;5.07;;;;;;;;;;5038196;28;20530;-83
2022/07/24 02:03:32;;;;;;;7.13;4.75;;;;;;;;;;5046173;28;20438;-83
2022/07/24 02:05:58;;;;;;;5.53;4.95;;;;;;;;;;5047149;28;20444;-83
2022/07/24 02:08:25;;;;;;;5.80;5.30;;;;;;;;;;5050916;28;20423;-84
2022/07/24 02:10:51;;;;;;;6.25;5.20;;;;;;;;;;5051996;28;20463;-84
2022/07/24 02:13:19;;;;;;;5.90;5.07;;;;;;;;;;5047689;28;20426;-83
2022/07/24 02:15:45;;;;;;;6.90;5.40;;;;;;;;;;5045045;28;20436;-83
2022/07/24 02:18:12;;;;;;;5.60;5.00;;;;;;;;;;5051588;28;20424;-83
2022/07/24 02:20:38;;;;;;;6.97;5.10;;;;;;;;;;5052138;28;20443;-83
2022/07/24 02:23:05;;;;;;;5.30;4.50;;;;;;;;;;5026570;28;20990;-83
2022/07/24 02:25:31;;;;;;;7.93;5.22;;;;;;;;;;5028917;28;20421;-84
2022/07/24 02:27:57;;;;;;;6.07;5.47;;;;;;;;;;5045478;28;20422;-83
2022/07/24 02:30:25;;;;;;;6.85;5.40;;;;;;;;;;5047421;28;20430;-83
2022/07/24 02:32:52;;;;;;;6.77;6.07;;;;;;;;;;5044415;28;20453;-83
2022/07/24 02:35:18;;;;;;;8.98;5.80;;;;;;;;;;5029163;28;20433;-83
2022/07/24 02:37:45;;;;;;;6.63;5.60;;;;;;;;;;5045786;28;20957;-83
2022/07/24 02:40:13;;;;;;;8.18;5.60;;;;;;;;;;5049978;28;20438;-83
2022/07/24 02:42:39;;;;;;;8.18;5.95;;;;;;;;;;5046968;28;20425;-82
2022/07/24 02:45:06;;;;;;;7.63;5.97;;;;;;;;;;5042825;28;20440;-83
2022/07/24 02:47:34;;;;;;;6.07;5.25;;;;;;;;;;5045001;28;20938;-83
2022/07/24 02:50:01;;;;;;;8.50;5.93;;;;;;;;;;5045057;28;20833;-82
2022/07/24 02:52:27;;;;;;;8.20;6.40;;;;;;;;;;5047698;28;20418;-83
2022/07/24 02:54:54;;;;;;;7.80;6.50;;;;;;;;;;5048361;28;20439;-82
2022/07/24 02:57:20;;;;;;;7.97;6.68;;;;;;;;;;5046941;28;20427;-83
2022/07/24 02:59:51;;;;;;;6.63;5.93;;;;;;;;;;5043124;28;20434;-82
2022/07/24 03:02:18;;;;;;;8.95;6.53;;;;;;;;;;5044708;28;20410;-83
2022/07/24 03:04:45;;;;;;;6.40;5.80;;;;;;;;;;5047516;28;20425;-83
2022/07/24 03:07:12;;;;;;;6.93;5.50;;;;;;;;;;5046134;28;20429;-83
2022/07/24 03:09:38;;;;;;;8.63;5.83;;;;;;;;;;5026000;28;20417;-83
2022/07/24 03:12:05;;;;;;;8.77;5.45;;;;;;;;;;5049633;28;20424;-83
2022/07/24 03:14:31;;;;;;;6.90;5.75;;;;;;;;;;5042339;28;20427;-83
2022/07/24 03:16:59;;;;;;;9.07;5.70;;;;;;;;;;5046001;28;20440;-83
2022/07/24 03:19:26;;;;;;;6.30;5.03;;;;;;;;;;5045161;28;20657;-83
2022/07/24 03:21:53;;;;;;;8.30;5.55;;;;;;;;;;5046840;28;20989;-83
2022/07/24 03:24:20;;;;;;;7.05;5.70;;;;;;;;;;5047082;28;20791;-83
2022/07/24 03:26:46;;;;;;;6.45;5.40;;;;;;;;;;5044400;28;20425;-83
2022/07/24 03:29:13;;;;;;;6.03;5.28;;;;;;;;;;5027086;28;20427;-83
2022/07/24 03:31:39;;;;;;;5.93;5.20;;;;;;;;;;5025046;28;20420;-83
2022/07/24 03:34:06;;;;;;;8.18;6.45;;;;;;;;;;5043453;28;20430;-83
2022/07/24 03:36:32;;;;;;;6.37;5.03;;;;;;;;;;5026093;28;20792;-82
2022/07/24 03:39:00;;;;;;;5.60;4.78;;;;;;;;;;5048565;28;20426;-83
2022/07/24 03:41:26;;;;;;;6.35;5.30;;;;;;;;;;5048408;28;20413;-83
2022/07/24 03:43:53;;;;;;;6.88;4.70;;;;;;;;;;5043623;28;20768;-83
2022/07/24 03:46:19;;;;;;;6.50;5.68;;;;;;;;;;5046957;28;20432;-83
2022/07/24 03:48:45;;;;;;;5.63;5.03;;;;;;;;;;5043842;28;20791;-82
2022/07/24 03:51:12;;;;;;;5.40;4.90;;;;;;;;;;5045280;28;21419;-82
2022/07/24 03:53:38;;;;;;;7.55;4.80;;;;;;;;;;5043086;28;21130;-83
2022/07/24 03:56:07;;;;;;;5.40;4.40;;;;;;;;;;5046029;28;20452;-82
2022/07/24 03:58:33;;;;;;;7.75;5.10;;;;;;;;;;5044385;28;20837;-82
2022/07/24 04:01:00;;;;;;;6.53;4.60;;;;;;;;;;5045542;28;20425;-82
2022/07/24 04:03:26;;;;;;;7.30;4.88;;;;;;;;;;5040931;28;20429;-82
2022/07/24 04:05:52;;;;;;;5.10;4.32;;;;;;;;;;5045602;28;20431;-83
2022/07/24 04:08:19;;;;;;;5.78;4.50;;;;;;;;;;5045826;28;20429;-82
2022/07/24 04:10:45;;;;;;;5.95;4.80;;;;;;;;;;5024774;28;20409;-82
2022/07/24 04:13:13;;;;;;;7.45;5.20;;;;;;;;;;5028288;28;20429;-82
2022/07/24 04:15:40;;;;;;;6.75;4.63;;;;;;;;;;5045038;28;20439;-82
2022/07/24 04:18:06;;;;;;;6.47;4.90;;;;;;;;;;5027388;28;20466;-82
2022/07/24 04:20:33;;;;;;;6.40;4.70;;;;;;;;;;5025232;28;20429;-83
2022/07/24 04:22:59;;;;;;;6.45;4.80;;;;;;;;;;5043466;28;20531;-82
2022/07/24 04:25:26;;;;;;;5.63;5.13;;;;;;;;;;5047625;28;20437;-82
2022/07/24 04:27:52;;;;;;;7.07;4.97;;;;;;;;;;5044924;28;20437;-82
2022/07/24 04:30:20;;;;;;;4.85;4.40;;;;;;;;;;5049162;28;20432;-81
2022/07/24 04:32:46;;;;;;;5.20;4.70;;;;;;;;;;5047228;28;20938;-83
2022/07/24 04:35:12;;;;;;;8.40;5.20;;;;;;;;;;5046893;28;20449;-82
2022/07/24 04:37:39;;;;;;;6.38;4.20;;;;;;;;;;5049662;28;20513;-82
2022/07/24 04:40:06;;;;;;;6.70;4.80;;;;;;;;;;5050543;28;20465;-82
2022/07/24 04:42:32;;;;;;;5.55;4.35;;;;;;;;;;5052051;28;20436;-82
2022/07/24 04:44:58;;;;;;;5.72;4.38;;;;;;;;;;5049296;28;20435;-82
2022/07/24 04:47:26;;;;;;;5.60;4.35;;;;;;;;;;5048304;28;20435;-82
2022/07/24 04:49:53;;;;;;;5.03;4.60;;;;;;;;;;5047670;28;20428;-82
2022/07/24 04:52:19;;;;;;;5.20;4.10;;;;;;;;;;5029000;28;20437;-83
2022/07/24 04:54:45;;;;;;;5.28;4.30;;;;;;;;;;5050160;28;20432;-82
2022/07/24 04:57:12;;;;;;;4.80;4.30;;;;;;;;;;5030715;28;20444;-83
2022/07/24 04:59:38;;;;;;;5.80;4.53;;;;;;;;;;5051450;28;20547;-83
2022/07/24 05:02:04;;;;;;;7.60;4.70;;;;;;;;;;5047127;28;20796;-83
2022/07/24 05:04:34;;;;;;;6.60;4.60;;;;;;;;;;5050073;28;20802;-83
2022/07/24 05:07:00;;;;;;;5.65;4.50;;;;;;;;;;5042092;28;20437;-83
2022/07/24 05:09:27;;;;;;;7.32;4.63;;;;;;;;;;5046445;28;20436;-82
2022/07/24 05:11:53;;;;;;;6.55;4.50;;;;;;;;;;5033365;28;20460;-83
2022/07/24 05:14:20;;;;;;;8.40;4.10;;;;;;;;;;5050978;28;20914;-82
2022/07/24 05:16:46;;;;;;;6.22;4.63;;;;;;;;;;5045489;28;20456;-82
2022/07/24 05:19:12;;;;;;;4.93;4.50;;;;;;;;;;5048274;28;20443;-82
2022/07/24 05:21:40;;;;;;;4.80;4.10;;;;;;;;;;5045915;28;20937;-83
2022/07/24 05:24:07;;;;;;;5.20;4.40;;;;;;;;;;5048830;28;20463;-82
2022/07/24 05:26:33;;;;;;;5.43;4.40;;;;;;;;;;5046465;28;20425;-83
2022/07/24 05:29:01;;;;;;;6.20;4.65;;;;;;;;;;5048684;28;20934;-83
2022/07/24 05:31:28;;;;;;;7.83;4.10;;;;;;;;;;5044482;28;20433;-83
2022/07/24 05:33:54;;;;;;;4.90;4.40;;;;;;;;;;5046405;28;20440;-83
2022/07/24 05:36:21;;;;;;;4.70;4.13;;;;;;;;;;5047027;28;20425;-82
2022/07/24 05:38:49;;;;;;;5.30;4.43;;;;;;;;;;5043661;28;20447;-82
2022/07/24 05:41:15;;;;;;;5.32;4.25;;;;;;;;;;5048583;28;20429;-83
2022/07/24 05:43:42;;;;;;;4.70;4.30;;;;;;;;;;5050421;28;20432;-83
2022/07/24 05:46:08;;;;;;;4.28;3.88;;;;;;;;;;5050948;28;20425;-84
2022/07/24 05:48:35;;;;;;;7.05;5.40;;;;;;;;;;5028711;28;20930;-82
2022/07/24 05:51:01;;;;;;;5.60;4.78;;;;;;;;;;5046899;28;20436;-80
2022/07/24 05:53:28;;;;;;;5.07;4.57;;;;;;;;;;5030597;28;20433;-83
2022/07/24 05:55:56;;;;;;;6.38;4.80;;;;;;;;;;5046882;28;20441;-83
2022/07/24 05:58:22;;;;;;;6.43;4.45;;;;;;;;;;5046916;28;20426;-83
2022/07/24 06:00:48;;;;;;;5.00;4.55;;;;;;;;;;5048270;28;20436;-79
2022/07/24 06:03:16;;;;;;;5.40;4.90;;;;;;;;;;5040169;28;20433;-81
2022/07/24 06:05:42;;;;;;;6.63;5.00;;;;;;;;;;5030360;28;20440;-81
2022/07/24 06:08:09;;;;;;;5.28;4.78;;;;;;;;;;5049557;28;20800;-81
2022/07/24 06:10:36;;;;;;;4.40;4.00;;;;;;;;;;5047263;28;20463;-82
2022/07/24 06:13:05;;;;;;;5.90;4.55;;;;;;;;;;5046778;28;20433;-81
2022/07/24 06:15:31;;;;;;;5.20;4.22;;;;;;;;;;5047403;28;20429;-81
2022/07/24 06:17:58;;;;;;;5.20;4.00;;;;;;;;;;5030723;28;20475;-81
2022/07/24 06:20:24;;;;;;;4.32;3.92;;;;;;;;;;5050343;28;20424;-80
2022/07/24 06:22:50;;;;;;;4.75;4.28;;;;;;;;;;5028431;28;20809;-81
2022/07/24 06:25:18;;;;;;;8.50;4.30;;;;;;;;;;5048173;28;20429;-82
2022/07/24 06:27:46;;;;;;;5.65;4.03;;;;;;;;;;5047294;28;20429;-81
2022/07/24 06:30:17;;;;;;;4.43;4.03;;;;;;;;;;5050089;28;20436;-81
2022/07/24 06:32:44;;;;;;;5.70;4.45;;;;;;;;;;5048908;28;20438;-80
2022/07/24 06:35:10;;;;;;;4.85;4.10;;;;;;;;;;5044901;28;20950;-81
2022/07/24 06:37:37;;;;;;;5.25;4.15;;;;;;;;;;5024398;28;20422;-81
2022/07/24 06:40:04;;;;;;;4.47;3.83;;;;;;;;;;5048644;28;20806;-81
2022/07/24 06:42:30;;;;;;;4.28;3.88;;;;;;;;;;5044197;28;20414;-81
2022/07/24 06:44:57;;;;;;;4.88;4.38;;;;;;;;;;5041888;28;20802;-82
2022/07/24 06:47:25;;;;;;;4.90;4.13;;;;;;;;;;5044605;28;20516;-81
2022/07/24 06:49:52;;;;;;;4.63;4.13;;;;;;;;;;5046746;28;20429;-81
2022/07/24 06:52:18;;;;;;;7.13;4.35;;;;;;;;;;5045687;28;20415;-82
2022/07/24 06:54:45;;;;;;;6.22;3.88;;;;;;;;;;5043903;28;20449;-81
2022/07/24 06:57:12;;;;;;;6.97;4.10;;;;;;;;;;5047837;28;20436;-81
2022/07/24 06:59:38;;;;;;;5.18;4.00;;;;;;;;;;5047218;28;20443;-81
2022/07/24 07:02:05;;;;;;;4.57;3.70;;;;;;;;;;5046208;28;20436;-82
2022/07/24 07:04:32;;;;;;;4.35;3.90;;;;;;;;;;5038845;28;20436;-82
2022/07/24 07:06:59;;;;;;;5.43;3.70;;;;;;;;;;5043315;28;20436;-81
2022/07/24 07:09:25;;;;;;;4.25;3.85;;;;;;;;;;5048077;28;20523;-80
2022/07/24 07:11:52;;;;;;;5.22;3.60;;;;;;;;;;5043028;28;20440;-82
2022/07/24 07:14:18;;;;;;;5.25;3.75;;;;;;;;;;5045238;28;20429;-82
2022/07/24 07:16:45;;;;;;;4.72;3.90;;;;;;;;;;5044492;28;20429;-82
2022/07/24 07:19:11;;;;;;;5.32;3.83;;;;;;;;;;5047905;28;20455;-81
2022/07/24 07:21:39;;;;;;;5.72;3.60;;;;;;;;;;5046176;28;20922;-80
2022/07/24 07:24:06;;;;;;;5.13;3.83;;;;;;;;;;5026375;28;20800;-79
2022/07/24 07:26:32;;;;;;;3.75;3.40;;;;;;;;;;5039885;28;20513;-81
2022/07/24 07:28:58;;;;;;;5.10;3.50;;;;;;;;;;5044436;28;20421;-81
2022/07/24 07:31:26;;;;;;;6.40;3.90;;;;;;;;;;5043434;28;20806;-80
2022/07/24 07:33:52;;;;;;;3.90;3.50;;;;;;;;;;5044163;28;20439;-82
2022/07/24 07:36:19;;;;;;;4.22;3.55;;;;;;;;;;5044018;28;20436;-82
2022/07/24 07:38:46;;;;;;;6.28;3.70;;;;;;;;;;5046072;28;21323;-81
2022/07/24 07:41:13;;;;;;;4.03;3.00;;;;;;;;;;5046299;28;20429;-82
2022/07/24 07:43:40;;;;;;;4.15;3.40;;;;;;;;;;5046990;28;20423;-81
2022/07/24 07:46:07;;;;;;;6.20;3.87;;;;;;;;;;5027391;28;20938;-82
2022/07/24 07:48:34;;;;;;;4.00;3.60;;;;;;;;;;5042693;28;20421;-80
2022/07/24 07:51:00;;;;;;;5.13;3.70;;;;;;;;;;5044597;28;20430;-79
2022/07/24 07:53:26;;;;;;;5.82;3.90;;;;;;;;;;5042775;28;20422;-81
2022/07/24 07:55:54;;;;;;;4.95;4.30;;;;;;;;;;5043750;28;20445;-79
2022/07/24 07:58:22;;;;;;;4.00;3.60;;;;;;;;;;5044026;28;20422;-80
2022/07/24 08:00:49;;;;;;;4.20;3.80;;;;;;;;;;5044574;28;20969;-80
2022/07/24 08:03:15;;;;;;;6.60;4.50;;;;;;;;;;5041759;28;20426;-80
2022/07/24 08:05:41;;;;;;;4.15;3.83;;;;;;;;;;5045551;28;20434;-80
2022/07/24 08:08:08;;;;;;;5.50;4.10;;;;;;;;;;5026267;28;21015;-79
2022/07/24 08:10:34;;;;;;;5.38;4.00;;;;;;;;;;5044039;28;20455;-80
2022/07/24 08:13:05;;;;;;;4.65;4.03;;;;;;;;;;5043047;28;20425;-81
2022/07/24 08:15:31;;;;;;;4.43;3.92;;;;;;;;;;5043761;28;20432;-80
2022/07/24 08:17:58;;;;;;;7.30;4.90;;;;;;;;;;5044904;28;20435;-80
2022/07/24 08:20:26;;;;;;;5.30;4.70;;;;;;;;;;5039312;28;20425;-80
2022/07/24 08:22:53;;;;;;;5.90;5.10;;;;;;;;;;5041112;28;20436;-79
2022/07/24 08:25:19;;;;;;;6.30;4.78;;;;;;;;;;5045167;28;20435;-80
2022/07/24 08:27:46;;;;;;;5.00;4.50;;;;;;;;;;5044249;28;20425;-81
2022/07/24 08:30:14;;;;;;;6.10;5.50;;;;;;;;;;5044425;28;20433;-81
2022/07/24 08:32:41;;;;;;;5.78;5.18;;;;;;;;;;5025472;28;20426;-80
2022/07/24 08:35:08;;;;;;;7.10;5.40;;;;;;;;;;5045112;28;20433;-81
2022/07/24 08:37:36;;;;;;;5.88;4.90;;;;;;;;;;5043393;28;20799;-81
2022/07/24 08:40:02;;;;;;;5.00;4.50;;;;;;;;;;5046803;28;20451;-81
2022/07/24 08:42:28;;;;;;;8.75;6.10;;;;;;;;;;5042965;28;20413;-80
2022/07/24 08:44:55;;;;;;;8.00;6.10;;;;;;;;;;5045658;28;20436;-80
2022/07/24 08:47:23;;;;;;;6.97;5.95;;;;;;;;;;5042641;28;20416;-81
2022/07/24 08:49:53;;;;;;;6.57;5.97;;;;;;;;;;5044759;28;21211;-81
2022/07/24 08:52:22;;;;;;;6.25;5.53;;;;;;;;;;5044151;28;20420;-80
2022/07/24 08:54:48;;;;;;;8.25;6.00;;;;;;;;;;5029046;28;20493;-80
2022/07/24 08:57:15;;;;;;;6.30;5.40;;;;;;;;;;5043925;28;20429;-81
2022/07/24 08:59:41;;;;;;;6.05;5.45;;;;;;;;;;5029209;28;20918;-80
2022/07/24 09:02:09;;;;;;;5.95;5.25;;;;;;;;;;5044136;28;20459;-80
2022/07/24 09:04:37;;;;;;;6.30;5.70;;;;;;;;;;5042460;28;20978;-81
2022/07/24 09:07:04;;;;;;;6.03;5.40;;;;;;;;;;5043688;28;20431;-80
2022/07/24 09:09:31;;;;;;;6.38;5.78;;;;;;;;;;5041730;28;20433;-81
2022/07/24 09:12:05;;;;;;;9.52;5.72;;;;;;;;;;5044139;28;21096;-81
2022/07/24 09:14:31;;;;;;;6.45;5.70;;;;;;;;;;5030101;28;20429;-82
2022/07/24 09:17:02;;;;;;;7.07;6.38;;;;;;;;;;5047377;28;20928;-82
2022/07/24 09:19:29;;;;;;;6.90;5.95;;;;;;;;;;5047232;28;20428;-82
2022/07/24 09:21:56;;;;;;;6.28;5.68;;;;;;;;;;5046753;28;20426;-81
2022/07/24 09:24:23;;;;;;;7.07;5.90;;;;;;;;;;5048095;28;20441;-81
2022/07/24 09:26:51;;;;;;;6.90;6.20;;;;;;;;;;5047092;28;20460;-80
2022/07/24 09:29:18;;;;;;;7.75;6.60;;;;;;;;;;5048532;28;20767;-81
2022/07/24 09:31:55;;;;;;;8.67;7.50;;;;;;;;;;5048751;28;20433;-82
2022/07/24 09:34:21;;;;;;;8.40;7.30;;;;;;;;;;5047887;28;20507;-81
2022/07/24 09:36:59;;;;;;;7.90;6.90;;;;;;;;;;5048385;28;20433;-81
2022/07/24 09:39:26;;;;;;;7.75;6.45;;;;;;;;;;5030293;28;20430;-80
2022/07/24 09:41:54;;;;;;;9.67;7.40;;;;;;;;;;5047131;28;20433;-81
2022/07/24 09:44:20;;;;;;;7.60;6.57;;;;;;;;;;5048966;28;20941;-81
2022/07/24 09:46:48;;;;;;;7.00;6.40;;;;;;;;;;5048888;28;20491;-80
2022/07/24 09:49:20;;;;;;;7.22;6.63;;;;;;;;;;5046819;28;20491;-80
2022/07/24 09:52:07;;;;;;;9.27;7.45;;;;;;;;;;5042966;28;20439;-80
2022/07/24 09:54:35;;;;;;;7.93;7.17;;;;;;;;;;5046946;28;20425;-83
2022/07/24 09:57:15;;;;;;;8.98;7.38;;;;;;;;;;5042616;28;20452;-80
2022/07/24 09:59:41;;;;;;;8.15;7.35;;;;;;;;;;5038555;28;20445;-81
2022/07/24 10:02:08;;;;;;;8.57;7.78;;;;;;;;;;5037203;28;20425;-80
2022/07/24 10:04:35;;;;;;;7.70;6.47;;;;;;;;;;5038799;28;20438;-82
2022/07/24 10:07:03;;;;;;;8.00;7.20;;;;;;;;;;5021694;28;20409;-81
2022/07/24 10:09:30;;;;;;;8.50;7.10;;;;;;;;;;5035816;28;20436;-80
2022/07/24 10:11:58;;;;;;;6.82;6.22;;;;;;;;;;5037822;28;20460;-81
2022/07/24 10:14:25;;;;;;;8.10;7.30;;;;;;;;;;5041064;28;20425;-82
2022/07/24 10:16:58;;;;;;;8.90;7.07;;;;;;;;;;5036535;28;20432;-81
2022/07/24 10:19:30;;;;;;;6.75;6.13;;;;;;;;;;5048181;28;20430;-81
2022/07/24 10:21:58;;;;;;;9.48;7.72;;;;;;;;;;5030701;28;20968;-81
2022/07/24 10:24:55;;;;;;;8.85;7.80;;;;;;;;;;5043800;28;20429;-80
2022/07/24 10:27:26;;;;;;;7.90;7.10;;;;;;;;;;5038965;28;20411;-83
2022/07/24 10:29:53;;;;;;;8.00;7.20;;;;;;;;;;5041953;28;20432;-81
2022/07/24 10:32:19;;;;;;;8.50;7.70;;;;;;;;;;5040645;28;20464;-81
2022/07/24 10:34:47;;;;;;;7.72;6.80;;;;;;;;;;5045631;28;20816;-81
2022/07/24 10:37:20;;;;;;;7.65;6.90;;;;;;;;;;5046984;28;20440;-80
2022/07/24 10:39:51;;;;;;;7.32;6.18;;;;;;;;;;5045314;28;20934;-81
2022/07/24 10:42:18;;;;;;;7.88;7.07;;;;;;;;;;5044526;28;20409;-81
2022/07/24 10:45:06;;;;;;;7.40;6.70;;;;;;;;;;5046811;28;20429;-81
2022/07/24 10:47:33;;;;;;;7.78;7.07;;;;;;;;;;5045919;28;20432;-81
2022/07/24 10:50:00;;;;;;;7.80;7.03;;;;;;;;;;5046719;28;20874;-82
2022/07/24 10:52:27;;;;;;;9.00;7.30;;;;;;;;;;5025514;28;20416;-81
2022/07/24 10:55:12;;;;;;;7.82;7.13;;;;;;;;;;5028965;28;20907;-80
2022/07/24 10:57:49;;;;;;;7.67;7.07;;;;;;;;;;5044014;28;20945;-81
2022/07/24 11:00:23;;;;;;;6.90;6.40;;;;;;;;;;5044018;28;20433;-81
2022/07/24 11:02:57;;;;;;;7.10;6.50;;;;;;;;;;5045643;28;20414;-81
2022/07/24 11:05:25;;;;;;;7.30;6.60;;;;;;;;;;5044290;28;20795;-81
2022/07/24 11:08:10;;;;;;;8.00;7.30;;;;;;;;;;5044877;28;20421;-81
2022/07/24 11:10:50;;;;;;;7.20;6.47;;;;;;;;;;5045586;28;20547;-80
2022/07/24 11:13:35;;;;;;;7.90;7.20;;;;;;;;;;5047346;28;20451;-82
2022/07/24 11:16:21;;;;;;;7.88;7.13;;;;;;;;;;5044262;28;20938;-81
2022/07/24 11:19:06;;;;;;;8.75;6.72;;;;;;;;;;5044367;28;20429;-82
2022/07/24 11:21:33;;;;;;;7.70;7.00;;;;;;;;;;5045145;28;20813;-82
2022/07/24 11:24:16;;;;;;;7.50;6.70;;;;;;;;;;5045147;28;20922;-83
2022/07/24 11:26:47;;;;;;;8.20;7.10;;;;;;;;;;5044587;28;20898;-82
2022/07/24 11:29:14;;;;;;;7.60;6.90;;;;;;;;;;5041987;28;20519;-80
2022/07/24 11:31:43;;;;;;;7.53;6.72;;;;;;;;;;5046611;28;20440;-79
2022/07/24 11:34:09;;;;;;;8.40;7.47;;;;;;;;;;5046238;28;20437;-82
2022/07/24 11:36:36;;;;;;;7.10;6.20;;;;;;;;;;5046871;28;20421;-79
2022/07/24 11:39:03;;;;;;;8.23;7.43;;;;;;;;;;5047831;28;20437;-81
2022/07/24 11:41:43;;;;;;;7.50;6.70;;;;;;;;;;5046716;28;20425;-80
2022/07/24 11:44:09;;;;;;;7.70;7.00;;;;;;;;;;5044446;28;20436;-80
2022/07/24 11:46:36;;;;;;;7.03;6.43;;;;;;;;;;5047591;28;20425;-82
2022/07/24 11:49:06;;;;;;;8.45;6.90;;;;;;;;;;5043830;28;20454;-80
2022/07/24 11:51:32;;;;;;;7.88;7.18;;;;;;;;;;5046821;28;20437;-79
2022/07/24 11:54:01;;;;;;;7.60;6.90;;;;;;;;;;5040650;28;20442;-81
2022/07/24 11:56:30;;;;;;;7.80;7.00;;;;;;;;;;5041544;28;20444;-81
2022/07/24 11:58:56;;;;;;;8.17;6.73;;;;;;;;;;5043501;28;20952;-80
2022/07/24 12:01:24;;;;;;;7.70;7.00;;;;;;;;;;5044708;28;20949;-80
2022/07/24 12:03:50;;;;;;;7.97;7.20;;;;;;;;;;5045943;28;20448;-80
2022/07/24 12:06:18;;;;;;;7.90;7.10;;;;;;;;;;5042884;28;20429;-79
2022/07/24 12:08:45;;;;;;;8.32;7.40;;;;;;;;;;5045177;28;20421;-82
2022/07/24 12:11:12;;;;;;;8.32;7.07;;;;;;;;;;5046397;28;20460;-80
2022/07/24 12:13:42;;;;;;;7.40;6.70;;;;;;;;;;5044179;28;20935;-80
2022/07/24 12:16:08;;;;;;;7.30;6.60;;;;;;;;;;5045629;28;20983;-80
2022/07/24 12:18:34;;;;;;;7.85;7.15;;;;;;;;;;5045306;28;20425;-80
2022/07/24 12:21:02;;;;;;;8.55;7.85;;;;;;;;;;5045258;28;20428;-79
2022/07/24 12:23:30;;;;;;;8.23;7.53;;;;;;;;;;5044145;28;20426;-79
2022/07/24 12:25:56;;;;;;;8.13;7.32;;;;;;;;;;5044380;28;20440;-81
2022/07/24 12:28:23;;;;;;;8.80;7.90;;;;;;;;;;5045451;28;20415;-79
2022/07/24 12:30:50;;;;;;;8.33;7.63;;;;;;;;;;5028510;28;20807;-81
2022/07/24 12:33:21;;;;;;;8.60;7.80;;;;;;;;;;5043340;28;20445;-80
2022/07/24 12:35:55;;;;;;;8.57;7.72;;;;;;;;;;5045483;28;20436;-79
2022/07/24 12:38:29;;;;;;;8.10;7.40;;;;;;;;;;5046857;28;20467;-79
2022/07/24 12:41:04;;;;;;;8.63;7.60;;;;;;;;;;5046258;28;20433;-79
2022/07/24 12:43:30;;;;;;;7.75;7.00;;;;;;;;;;5043642;28;20436;-80
2022/07/24 12:46:05;;;;;;;7.97;7.28;;;;;;;;;;5036276;28;20436;-79
2022/07/24 12:48:33;;;;;;;9.43;7.38;;;;;;;;;;5029511;28;20467;-80
2022/07/24 12:51:09;;;;;;;7.80;7.00;;;;;;;;;;5052733;28;20810;-81
2022/07/24 12:53:36;;;;;;;7.50;6.90;;;;;;;;;;5050291;28;20447;-80
2022/07/24 12:56:06;;;;;;;7.30;6.70;;;;;;;;;;5054081;28;20419;-80
2022/07/24 12:58:47;;;;;;;7.43;6.70;;;;;;;;;;5051451;28;20959;-79
2022/07/24 13:01:14;;;;;;;6.88;6.28;;;;;;;;;;5046978;28;20937;-79
2022/07/24 13:03:40;;;;;;;7.30;6.60;;;;;;;;;;5045695;28;20431;-80
2022/07/24 13:06:07;;;;;;;7.15;6.45;;;;;;;;;;5050151;28;20436;-80
2022/07/24 13:08:34;;;;;;;6.18;5.68;;;;;;;;;;5048838;28;20436;-80
2022/07/24 13:11:01;;;;;;;7.10;6.40;;;;;;;;;;5049152;28;20433;-80
2022/07/24 13:13:30;;;;;;;7.50;6.90;;;;;;;;;;5048992;28;20430;-79
2022/07/24 13:15:56;;;;;;;7.13;6.53;;;;;;;;;;5047126;28;20800;-81
2022/07/24 13:18:22;;;;;;;7.63;6.93;;;;;;;;;;5050348;28;20437;-80
2022/07/24 13:20:49;;;;;;;7.85;7.15;;;;;;;;;;5050788;28;20425;-80
2022/07/24 13:23:15;;;;;;;7.10;6.40;;;;;;;;;;5051491;28;20421;-80
2022/07/24 13:25:44;;;;;;;7.07;6.38;;;;;;;;;;5031307;28;20429;-80
2022/07/24 13:28:10;;;;;;;6.57;5.97;;;;;;;;;;5048066;28;20426;-81
2022/07/24 13:30:38;;;;;;;7.93;7.00;;;;;;;;;;5048275;28;20809;-79
2022/07/24 13:33:04;;;;;;;10.13;7.00;;;;;;;;;;5050468;28;20430;-80
2022/07/24 13:35:31;;;;;;;7.37;6.77;;;;;;;;;;5050113;28;20428;-80
2022/07/24 13:37:57;;;;;;;8.47;6.83;;;;;;;;;;5048082;28;20431;-80
2022/07/24 13:40:24;;;;;;;6.80;6.20;;;;;;;;;;5050478;28;20437;-80
2022/07/24 13:42:50;;;;;;;7.20;6.38;;;;;;;;;;5043994;28;20421;-79
2022/07/24 13:45:16;;;;;;;8.55;6.80;;;;;;;;;;5027273;28;20422;-81
2022/07/24 13:47:44;;;;;;;8.20;7.40;;;;;;;;;;5048646;28;20421;-79
2022/07/24 13:50:11;;;;;;;7.80;6.10;;;;;;;;;;5050162;28;21013;-80
2022/07/24 13:52:37;;;;;;;6.30;5.70;;;;;;;;;;5051261;28;20425;-79
2022/07/24 13:55:03;;;;;;;7.25;6.35;;;;;;;;;;5051264;28;20424;-79
2022/07/24 13:57:30;;;;;;;7.13;6.43;;;;;;;;;;5029471;28;20961;-80
2022/07/24 13:59:56;;;;;;;6.78;6.18;;;;;;;;;;5046866;28;20437;-81
2022/07/24 14:02:23;;;;;;;6.50;6.00;;;;;;;;;;5048928;28;20433;-81
2022/07/24 14:04:51;;;;;;;6.97;6.38;;;;;;;;;;5047552;28;20429;-81
2022/07/24 14:07:17;;;;;;;6.75;6.15;;;;;;;;;;5052533;28;20409;-80
2022/07/24 14:09:43;;;;;;;7.38;6.57;;;;;;;;;;5028184;28;20417;-80
2022/07/24 14:12:10;;;;;;;6.53;5.90;;;;;;;;;;5047736;28;20799;-80
2022/07/24 14:14:37;;;;;;;7.00;6.40;;;;;;;;;;5049189;28;20436;-80
2022/07/24 14:17:03;;;;;;;6.78;5.70;;;;;;;;;;5049287;28;20431;-80
2022/07/24 14:19:30;;;;;;;6.63;6.03;;;;;;;;;;5049937;28;20436;-79
2022/07/24 14:21:58;;;;;;;7.10;6.20;;;;;;;;;;5030749;28;20442;-80
2022/07/24 14:24:24;;;;;;;7.20;5.90;;;;;;;;;;5051856;28;20412;-81
2022/07/24 14:26:50;;;;;;;6.80;6.10;;;;;;;;;;5050282;28;20441;-80
2022/07/24 14:29:17;;;;;;;7.10;6.40;;;;;;;;;;5050644;28;20421;-79
2022/07/24 14:31:43;;;;;;;7.00;6.30;;;;;;;;;;5048990;28;20429;-81
2022/07/24 14:34:09;;;;;;;6.93;6.10;;;;;;;;;;5046151;28;20422;-81
2022/07/24 14:36:36;;;;;;;6.77;5.50;;;;;;;;;;5052633;28;20429;-80
2022/07/24 14:39:04;;;;;;;5.60;5.00;;;;;;;;;;5045985;28;20499;-80
2022/07/24 14:41:31;;;;;;;6.97;5.70;;;;;;;;;;5046809;28;20429;-81
2022/07/24 14:43:57;;;;;;;6.30;5.55;;;;;;;;;;5046213;28;20444;-80
2022/07/24 14:46:23;;;;;;;6.55;5.78;;;;;;;;;;5047254;28;20439;-80